ETNN 200120Z 30005KT 9999 BKN018 16/14 Q1022 WHT ETNN 200020Z 29003KT 9999 BKN020 SCT080 17/14 Q1022 WHT ETNN 192320Z 28004KT 9999 BKN013 SCT080 17/15 Q1022 GRN ETNN 192220Z 29006KT 9999 FEW020 SCT080 17/15 Q1022 BLU+ ETNN 192120Z 17004KT 9999 FEW030 SCT100 17/15 Q1021 BLU+ ETNN 192020Z 15003KT 9999 FEW060 SCT120 18/16 Q1021 BLU+ ETNN 191920Z 16003KT 9999 FEW060 SCT120 18/16 Q1021 BLU+ ETNN 191820Z 12003KT 9999 FEW060 SCT120 20/15 Q1020 BLU+ ETNN 191720Z 25002KT 9999 FEW030 SCT120 BKN300 20/15 Q1020 BLU+ ETNN 191620Z 25008KT 9999 FEW030 SCT050 BKN240 19/15 Q1020 BLU+ ETNN 191520Z 24004KT 9999 VCTS FEW015 FEW030CB BKN100 18/15 Q1019 BLU ETNN 191500Z 26005KT 9999 VCTS FEW015 FEW030CB BKN100 17/15 Q1019 BLU FCST CNL ETNN 191420Z 29008KT 9999 -TSRA FEW015 FEW030CB BKN100 18/15 Q1019 BLU BLU+ TEMPO AMB ETNN 191334Z 28010KT 8000 -TSRA FEW015 SCT030CB BKN080 19/17 Q1018 BLU BLU+ TEMPO AMB ETNN 191320Z 27021KT 6000 -TSRA SCT030CB BKN080 20/16 Q1017 WHT BLU+ TEMPO AMB ETNN 191312Z 24023G38KT 2500 -TSRA HZ SCT030CB BKN060 23/14 Q1016 YLO BLU+ TEMPO AMB ETNN 191304Z 17010G35KT 1000 R25/7000D BLDU HZ SCT050CB BKN150 29/14 Q1017 AMB BLU+ TEMPO AMB ETNN 191234Z 16011KT 9999 FEW050 SCT150 BKN250 30/14 Q1016 BLU+BLU+ TEMPO AMB ETNN 191220Z 14008G20KT 9999 FEW050 SCT150 BKN250 29/15 Q1016 BLU+BLU+ TEMPO AMB ETNN 191120Z 13008KT 9999 FEW050 SCT090 BKN250 26/14 Q1016 BLU+BLU+ TEMPO YLO ETNN 191020Z 14009KT 9999 -SHRA FEW050 SCT120 BKN200 26/13 Q1017 RETS BLU+BLU+ TEMPO YLO ETNN 191001Z 13007KT 9999 VCTS FEW030CB SCT120 BKN200 26/13 Q1017 BLU+BLU+ TEMPO YLO ETNN 190920Z 14007KT 9999 FEW050 SCT120 BKN250 26/12 Q1018 BLU+BLU+ ETNN 190820Z 13004KT 9999 SCT120 BKN250 24/14 Q1018 BLU+BLU+ ETNN 190720Z 12004KT 9999 SCT120 BKN320 22/14 Q1018 BLU+BLU+ ETNN 190620Z 05003KT 9999 SCT130 BKN340 20/13 Q1019 BLU+BLU+ ETNN 190520Z 13004KT 9999 SCT130 BKN220 19/12 Q1018 BLU+ ETNN 190420Z 12004KT 9999 FEW030 SCT150 BKN250 17/12 Q1018 BLU+ ETNN 190320Z 11003KT 9999 BKN250 17/12 Q1018 BLU+ ETNN 190220Z VRB03KT 9999 BKN260 17/12 Q1018 BLU+ ETNN 190120Z 11005KT 9999 BKN270 18/11 Q1018 BLU+ ETNN 190020Z 14003KT 9999 BKN280 19/12 Q1018 BLU+ ETNN 182320Z 15004KT 9999 BKN260 19/13 Q1019 BLU+ ETNN 182220Z 13003KT 9999 BKN250 18/14 Q1019 BLU+ ETNN 182120Z 14003KT 9999 FEW080 BKN250 20/14 Q1019 BLU+ ETNN 182020Z 11003KT 9999 FEW080 BKN280 22/13 Q1019 BLU+ ETNN 181920Z 01002KT 9999 FEW080 BKN250 24/13 Q1019 BLU+ ETNN 181820Z 09004KT 9999 BKN080 BKN250 26/12 Q1019 BLU ETNN 181720Z 10005KT 9999 FEW050 BKN090 BKN280 27/12 Q1019 BLU ETNN 181620Z 10006KT 9999 FEW050 SCT090 BKN280 28/12 Q1019 BLU+ ETNN 181520Z 11006KT 9999 SCT050 BKN340 30/12 Q1019 BLU+ ETNN 181500Z 10006KT 9999 SCT050 BKN380 29/12 Q1019 BLU+FCST CNL ETNN 181420Z 10007KT 9999 SCT050 BKN380 30/12 Q1019 BLU+BLU+ ETNN 181412Z 10007KT 9999 SCT050 BKN380 29/12 Q1019 BLU+BLU+

METAR Messwerte "NOERVENICH (GAF)" ETNN

Zurück zur Übersicht

Ortsname
Ländercode / m ü. NN
Zeit Temperatur Taupunkt Rel.
Luftfeuchte
Luftdruck:
Altimeter
NN
Station
Wind in Beaufort
(Knoten)
Sichtweite
(Meter)
Wolken
(Meter über Grund)
Wettererscheinung
NOERVENICH (GAF)
DE 108
Fr 20.05. 03:20161488 %1022
1022
1009
WNW 2 (5)>= 10000Stark bewölkt (550) 
NOERVENICH (GAF)
DE 108
Fr 20.05. 02:20171482 %1022
1022
1009
WNW 2 (3)>= 10000Wolkig (2400)
Stark bewölkt (610)
 
NOERVENICH (GAF)
DE 108
Fr 20.05. 01:20171588 %1022
1022
1009
W 2 (4)>= 10000Wolkig (2400)
Stark bewölkt (400)
 
NOERVENICH (GAF)
DE 108
Fr 20.05. 00:20171588 %1022
1022
1009
WNW 2 (6)>= 10000Wolkig (2400)
Leicht bewölkt (610)
 
NOERVENICH (GAF)
DE 108
Do 19.05. 23:20171588 %1021
1021
1008
S 2 (4)>= 10000Wolkig (3000)
Leicht bewölkt (910)
 
NOERVENICH (GAF)
DE 108
Do 19.05. 22:20181688 %1021
1021
1008
SSO 2 (3)>= 10000Wolkig (3700)
Leicht bewölkt (1800)
 
NOERVENICH (GAF)
DE 108
Do 19.05. 21:20181688 %1021
1021
1008
SSO 2 (3)>= 10000Wolkig (3700)
Leicht bewölkt (1800)
 
NOERVENICH (GAF)
DE 108
Do 19.05. 20:20201573 %1020
1020
1007
OSO 2 (3)>= 10000Wolkig (3700)
Leicht bewölkt (1800)
 
NOERVENICH (GAF)
DE 108
Do 19.05. 19:20201573 %1020
1020
1007
WSW 1 (2)>= 10000Stark bewölkt (9100)
Wolkig (3700)
Leicht bewölkt (910)
 
NOERVENICH (GAF)
DE 108
Do 19.05. 18:20191578 %1020
1020
1007
WSW 3 (8)>= 10000Stark bewölkt (7300)
Wolkig (1500)
Leicht bewölkt (910)
 
NOERVENICH (GAF)
DE 108
Do 19.05. 17:20181583 %1019
1019
1006
WSW 2 (4)>= 10000Stark bewölkt (3000)
Leicht bewölkt Cb (910)
Leicht bewölkt (460)
 
NOERVENICH (GAF)
DE 108
Do 19.05. 17:00171588 %1019
1019
1006
W 2 (5)>= 10000Stark bewölkt (3000)
Leicht bewölkt Cb (910)
Leicht bewölkt (460)
 
NOERVENICH (GAF)
DE 108
Do 19.05. 16:20181583 %1019
1019
1006
WNW 3 (8)>= 10000Stark bewölkt (3000)
Leicht bewölkt Cb (910)
Leicht bewölkt (460)
Gewitter mit Regen (schwach)
NOERVENICH (GAF)
DE 108
Do 19.05. 15:34191788 %1018
1018
1005
W 3 (10)8000Stark bewölkt (2400)
Wolkig Cb (910)
Leicht bewölkt (460)
Gewitter mit Regen (schwach)
NOERVENICH (GAF)
DE 108
Do 19.05. 15:20201678 %1017
1017
1004
W 6 (21)6000Stark bewölkt (2400)
Wolkig Cb (910)
Gewitter mit Regen (schwach)
NOERVENICH (GAF)
DE 108
Do 19.05. 15:12231457 %1016
1016
1003
WSW 6 (23) - 8 (38)2500Stark bewölkt (1800)
Wolkig Cb (910)
Gewitter mit Regen (schwach)
Dunst
NOERVENICH (GAF)
DE 108
Do 19.05. 15:04291440 %1017
1016
1004
S 3 (10) - 8 (35)1000Stark bewölkt (4600)
Wolkig Cb (1500)
Staub
Dunst
NOERVENICH (GAF)
DE 108
Do 19.05. 14:34301438 %1016
1015
1003
SSO 4 (11)>= 10000Stark bewölkt (7600)
Wolkig (4600)
Leicht bewölkt (1500)
 
NOERVENICH (GAF)
DE 108
Do 19.05. 14:20291543 %1016
1015
1003
SO 3 (8) - 5 (20)>= 10000Stark bewölkt (7600)
Wolkig (4600)
Leicht bewölkt (1500)
 
NOERVENICH (GAF)
DE 108
Do 19.05. 13:20261448 %1016
1016
1003
SO 3 (8)>= 10000Stark bewölkt (7600)
Wolkig (2700)
Leicht bewölkt (1500)
 
NOERVENICH (GAF)
DE 108
Do 19.05. 12:20261345 %1017
1017
1004
SO 3 (9)>= 10000Stark bewölkt (6100)
Wolkig (3700)
Leicht bewölkt (1500)
Regen-Schauer (schwach)
NOERVENICH (GAF)
DE 108
Do 19.05. 12:01261345 %1017
1017
1004
SO 3 (7)>= 10000Stark bewölkt (6100)
Wolkig (3700)
Leicht bewölkt Cb (910)
 
NOERVENICH (GAF)
DE 108
Do 19.05. 11:20261242 %1018
1018
1005
SO 3 (7)>= 10000Stark bewölkt (7600)
Wolkig (3700)
Leicht bewölkt (1500)
 
NOERVENICH (GAF)
DE 108
Do 19.05. 10:20241454 %1018
1018
1005
SO 2 (4)>= 10000Stark bewölkt (7600)
Wolkig (3700)
 
NOERVENICH (GAF)
DE 108
Do 19.05. 09:20221460 %1018
1018
1005
OSO 2 (4)>= 10000Stark bewölkt (9800)
Wolkig (3700)
 
NOERVENICH (GAF)
DE 108
Do 19.05. 08:20201364 %1019
1019
1006
NO 2 (3)>= 10000Stark bewölkt (10000)
Wolkig (4000)
 
NOERVENICH (GAF)
DE 108
Do 19.05. 07:20191264 %1018
1018
1005
SO 2 (4)>= 10000Stark bewölkt (6700)
Wolkig (4000)
 
NOERVENICH (GAF)
DE 108
Do 19.05. 06:20171272 %1018
1018
1005
OSO 2 (4)>= 10000Stark bewölkt (7600)
Wolkig (4600)
Leicht bewölkt (910)
 
NOERVENICH (GAF)
DE 108
Do 19.05. 05:20171272 %1018
1018
1005
OSO 2 (3)>= 10000Stark bewölkt (7600) 
NOERVENICH (GAF)
DE 108
Do 19.05. 04:20171272 %1018
1018
1005
Uml 2 (3)>= 10000Stark bewölkt (7900) 
NOERVENICH (GAF)
DE 108
Do 19.05. 03:20181164 %1018
1018
1005
OSO 2 (5)>= 10000Stark bewölkt (8200) 
NOERVENICH (GAF)
DE 108
Do 19.05. 02:20191264 %1018
1018
1005
SO 2 (3)>= 10000Stark bewölkt (8500) 
NOERVENICH (GAF)
DE 108
Do 19.05. 01:20191368 %1019
1019
1006
SSO 2 (4)>= 10000Stark bewölkt (7900) 
NOERVENICH (GAF)
DE 108
Do 19.05. 00:20181477 %1019
1019
1006
SO 2 (3)>= 10000Stark bewölkt (7600) 
NOERVENICH (GAF)
DE 108
Mi 18.05. 23:20201468 %1019
1019
1006
SO 2 (3)>= 10000Stark bewölkt (7600)
Leicht bewölkt (2400)
 
NOERVENICH (GAF)
DE 108
Mi 18.05. 22:20221357 %1019
1019
1006
OSO 2 (3)>= 10000Stark bewölkt (8500)
Leicht bewölkt (2400)
 
NOERVENICH (GAF)
DE 108
Mi 18.05. 21:20241350 %1019
1019
1006
N 1 (2)>= 10000Stark bewölkt (7600)
Leicht bewölkt (2400)
 
NOERVENICH (GAF)
DE 108
Mi 18.05. 20:20261242 %1019
1019
1006
O 2 (4)>= 10000Stark bewölkt (7600)
Stark bewölkt (2400)
 
NOERVENICH (GAF)
DE 108
Mi 18.05. 19:20271239 %1019
1018
1006
O 2 (5)>= 10000Stark bewölkt (8500)
Stark bewölkt (2700)
Leicht bewölkt (1500)
 
NOERVENICH (GAF)
DE 108
Mi 18.05. 18:20281237 %1019
1018
1006
O 2 (6)>= 10000Stark bewölkt (8500)
Wolkig (2700)
Leicht bewölkt (1500)
 
NOERVENICH (GAF)
DE 108
Mi 18.05. 17:20301233 %1019
1018
1006
OSO 2 (6)>= 10000Stark bewölkt (10000)
Wolkig (1500)
 
NOERVENICH (GAF)
DE 108
Mi 18.05. 17:00291235 %1019
1018
1006
O 2 (6)>= 10000Stark bewölkt (12000)
Wolkig (1500)
 
NOERVENICH (GAF)
DE 108
Mi 18.05. 16:20301233 %1019
1018
1006
O 3 (7)>= 10000Stark bewölkt (12000)
Wolkig (1500)
 
NOERVENICH (GAF)
DE 108
Mi 18.05. 16:12291235 %1019
1018
1006
O 3 (7)>= 10000Stark bewölkt (12000)
Wolkig (1500)
 

Altimeter: Einstellung am Altimeter (Höhenmesser), die Höhe 0 muss auf diesen Luftdruckwert zeigen, damit das Gerät die Stationshöhe richtig anzeigt.

NN: Luftdruck reduziert auf "Normal Null", auf Meereshöhe, dieser von der Temperatur abhängige Wert wird bisweilen unkorrekt einfach als "Luftdruck" bezeichnet. Eigentlich nur eine fiktive Größe, die es erlaubt, Stationen auf unterschiedlichen Höhen miteinander zu vergleichen.

Station: Realer Luftdruck an der Station.